Time;durP1;ratioP1;P1;durP2;ratioP2;P2;SDS_P1;SDS_P2;PMS_P1;PMS_P2;Temp;Humidity;BMP_temperature;BMP_pressure;BME280_temperature;BME280_humidity;BME280_pressure;Samples;Min_cycle;Max_cycle;Signal;HPM_P1;HPM_P2
2023/04/26 00:02:14;;;;;;;7.53;5.00;;;;;;;;;;4996606;28;20216;-74
2023/04/26 00:04:41;;;;;;;7.87;4.97;;;;;;;;;;4996210;28;20655;-74
2023/04/26 00:07:07;;;;;;;9.43;5.37;;;;;;;;;;4996057;28;20737;-74
2023/04/26 00:09:34;;;;;;;7.67;5.33;;;;;;;;;;4996030;28;20596;-74
2023/04/26 00:12:00;;;;;;;7.20;5.30;;;;;;;;;;4996419;28;20259;-74
2023/04/26 00:14:27;;;;;;;6.27;5.33;;;;;;;;;;4996346;28;20286;-74
2023/04/26 00:16:53;;;;;;;8.00;5.50;;;;;;;;;;4995995;28;20227;-74
2023/04/26 00:19:20;;;;;;;7.43;5.67;;;;;;;;;;4995905;28;20211;-74
2023/04/26 00:21:46;;;;;;;6.93;4.57;;;;;;;;;;4995939;28;20207;-74
2023/04/26 00:24:12;;;;;;;8.53;5.37;;;;;;;;;;4996285;28;20234;-74
2023/04/26 00:26:38;;;;;;;7.67;5.00;;;;;;;;;;4995818;28;20840;-74
2023/04/26 00:29:05;;;;;;;8.23;5.23;;;;;;;;;;4995895;28;20554;-74
2023/04/26 00:31:31;;;;;;;7.97;5.10;;;;;;;;;;4995923;28;20211;-74
2023/04/26 00:33:57;;;;;;;6.83;4.87;;;;;;;;;;4995747;28;20670;-74
2023/04/26 00:36:24;;;;;;;5.97;4.90;;;;;;;;;;4995416;28;20740;-74
2023/04/26 00:38:50;;;;;;;7.13;5.07;;;;;;;;;;4995767;28;20666;-74
2023/04/26 00:41:16;;;;;;;7.20;5.40;;;;;;;;;;4995438;28;20219;-74
2023/04/26 00:43:42;;;;;;;6.80;5.30;;;;;;;;;;4995451;28;20218;-74
2023/04/26 00:46:09;;;;;;;6.10;4.83;;;;;;;;;;4995601;28;20230;-74
2023/04/26 00:48:38;;;;;;;6.07;5.23;;;;;;;;;;4995720;28;20211;-74
2023/04/26 00:51:05;;;;;;;9.30;5.93;;;;;;;;;;4995219;28;20207;-74
2023/04/26 00:53:33;;;;;;;10.30;5.70;;;;;;;;;;4995620;28;20273;-74
2023/04/26 00:55:59;;;;;;;8.30;5.63;;;;;;;;;;4995560;28;20220;-74
2023/04/26 00:58:25;;;;;;;7.53;5.30;;;;;;;;;;4995634;28;20214;-74
2023/04/26 01:00:52;;;;;;;6.23;4.90;;;;;;;;;;4995558;28;20214;-74
2023/04/26 01:03:18;;;;;;;8.67;5.10;;;;;;;;;;4995091;28;20214;-74
2023/04/26 01:05:45;;;;;;;6.17;5.23;;;;;;;;;;4994921;28;20707;-74
2023/04/26 01:08:11;;;;;;;6.83;4.60;;;;;;;;;;4995163;28;20219;-74
2023/04/26 01:10:39;;;;;;;7.43;5.30;;;;;;;;;;4995181;28;20207;-74
2023/04/26 01:13:05;;;;;;;5.97;4.47;;;;;;;;;;4995532;28;20203;-74
2023/04/26 01:15:32;;;;;;;6.57;4.33;;;;;;;;;;4994910;28;20227;-74
2023/04/26 01:17:59;;;;;;;7.83;4.43;;;;;;;;;;4994850;28;20310;-74
2023/04/26 01:20:25;;;;;;;7.23;4.63;;;;;;;;;;4994929;28;20204;-74
2023/04/26 01:22:52;;;;;;;5.60;4.63;;;;;;;;;;4994943;28;20266;-74
2023/04/26 01:25:19;;;;;;;7.43;4.70;;;;;;;;;;4994731;28;20235;-74
2023/04/26 01:27:45;;;;;;;6.37;4.27;;;;;;;;;;4994845;28;20214;-74
2023/04/26 01:30:11;;;;;;;6.13;4.50;;;;;;;;;;4994476;28;20215;-74
2023/04/26 01:32:38;;;;;;;6.27;4.57;;;;;;;;;;4994416;28;20203;-74
2023/04/26 01:35:06;;;;;;;7.47;4.30;;;;;;;;;;4994600;28;20276;-74
2023/04/26 01:37:32;;;;;;;6.93;4.53;;;;;;;;;;4994715;28;20218;-74
2023/04/26 01:39:58;;;;;;;6.93;4.97;;;;;;;;;;4994881;28;20211;-74
2023/04/26 01:42:24;;;;;;;6.73;4.70;;;;;;;;;;4994309;28;20218;-74
2023/04/26 01:44:51;;;;;;;7.23;4.80;;;;;;;;;;4994363;28;20227;-74
2023/04/26 01:47:17;;;;;;;6.87;5.10;;;;;;;;;;4994651;28;20204;-73
2023/04/26 01:49:43;;;;;;;9.00;4.70;;;;;;;;;;4994563;28;20211;-73
2023/04/26 01:52:09;;;;;;;7.43;4.90;;;;;;;;;;4994714;28;20381;-73
2023/04/26 01:54:36;;;;;;;12.00;5.37;;;;;;;;;;4994553;28;20207;-73
2023/04/26 01:57:02;;;;;;;9.83;4.40;;;;;;;;;;4994454;28;20228;-73
2023/04/26 01:59:28;;;;;;;6.67;4.70;;;;;;;;;;4994410;28;20630;-73
2023/04/26 02:01:55;;;;;;;10.27;5.17;;;;;;;;;;4994122;28;20671;-73
2023/04/26 02:04:22;;;;;;;7.70;4.83;;;;;;;;;;4994033;28;20705;-73
2023/04/26 02:06:49;;;;;;;9.33;5.43;;;;;;;;;;4993995;28;20706;-73
2023/04/26 02:09:15;;;;;;;8.23;5.20;;;;;;;;;;4993963;28;20674;-73
2023/04/26 02:11:41;;;;;;;7.37;4.90;;;;;;;;;;4994377;28;20207;-73
2023/04/26 02:14:08;;;;;;;10.57;5.33;;;;;;;;;;4994427;28;20210;-73
2023/04/26 02:16:34;;;;;;;8.90;5.20;;;;;;;;;;4994291;28;20227;-73
2023/04/26 02:19:01;;;;;;;8.00;5.17;;;;;;;;;;4994333;28;20218;-73
2023/04/26 02:21:29;;;;;;;9.17;4.77;;;;;;;;;;4994291;28;20207;-73
2023/04/26 02:23:56;;;;;;;7.07;5.00;;;;;;;;;;4994336;28;20218;-73
2023/04/26 02:26:22;;;;;;;10.10;5.17;;;;;;;;;;4994193;28;20570;-73
2023/04/26 02:28:48;;;;;;;9.07;5.20;;;;;;;;;;4994192;28;20218;-73
2023/04/26 02:31:15;;;;;;;8.03;5.30;;;;;;;;;;4994032;28;20689;-74
2023/04/26 02:33:41;;;;;;;7.57;5.60;;;;;;;;;;4993849;28;20218;-74
2023/04/26 02:36:07;;;;;;;9.60;5.67;;;;;;;;;;4993660;28;20227;-74
2023/04/26 02:38:35;;;;;;;9.57;6.20;;;;;;;;;;4994126;28;20207;-74
2023/04/26 02:41:01;;;;;;;10.20;5.90;;;;;;;;;;4994122;28;20219;-74
2023/04/26 02:43:28;;;;;;;8.30;6.37;;;;;;;;;;4994068;28;20278;-74
2023/04/26 02:45:54;;;;;;;10.83;6.97;;;;;;;;;;4993890;28;20597;-74
2023/04/26 02:48:20;;;;;;;11.63;6.87;;;;;;;;;;4994255;28;20257;-74
2023/04/26 02:50:47;;;;;;;11.00;6.80;;;;;;;;;;4993675;28;20215;-74
2023/04/26 02:53:13;;;;;;;9.97;7.60;;;;;;;;;;4993646;28;20692;-74
2023/04/26 02:55:39;;;;;;;10.00;7.90;;;;;;;;;;4996248;28;20710;-74
2023/04/26 02:58:06;;;;;;;10.80;7.33;;;;;;;;;;4997752;28;20203;-74
2023/04/26 03:00:33;;;;;;;12.30;7.60;;;;;;;;;;4997419;28;20670;-74
2023/04/26 03:02:59;;;;;;;10.17;8.10;;;;;;;;;;4997650;28;20285;-73
2023/04/26 03:05:25;;;;;;;9.67;8.23;;;;;;;;;;4997537;28;20698;-73
2023/04/26 03:07:52;;;;;;;12.73;9.53;;;;;;;;;;4997424;28;20587;-74
2023/04/26 03:10:18;;;;;;;11.37;8.93;;;;;;;;;;4997346;28;20203;-74
2023/04/26 03:12:44;;;;;;;13.27;9.63;;;;;;;;;;4996987;28;20217;-74
2023/04/26 03:15:10;;;;;;;12.90;9.73;;;;;;;;;;4996785;28;20725;-74
2023/04/26 03:17:37;;;;;;;11.20;10.03;;;;;;;;;;4997098;28;20674;-74
2023/04/26 03:20:05;;;;;;;15.87;10.67;;;;;;;;;;4996939;28;20555;-74
2023/04/26 03:22:31;;;;;;;13.07;10.93;;;;;;;;;;4997181;28;20208;-74
2023/04/26 03:24:57;;;;;;;14.97;10.67;;;;;;;;;;4996687;28;20234;-74
2023/04/26 03:27:24;;;;;;;14.90;11.07;;;;;;;;;;4996850;28;20211;-74
2023/04/26 03:29:50;;;;;;;15.40;11.27;;;;;;;;;;4996799;28;20666;-74
2023/04/26 03:32:16;;;;;;;14.43;11.37;;;;;;;;;;4996928;28;20246;-74
2023/04/26 03:34:42;;;;;;;12.97;11.10;;;;;;;;;;4996873;28;20204;-74
2023/04/26 03:37:09;;;;;;;15.10;11.80;;;;;;;;;;4996729;28;20227;-74
2023/04/26 03:39:35;;;;;;;16.23;12.17;;;;;;;;;;4996898;28;20203;-74
2023/04/26 03:42:02;;;;;;;13.40;11.17;;;;;;;;;;4996834;28;20219;-74
2023/04/26 03:44:29;;;;;;;16.53;11.67;;;;;;;;;;4996742;28;20211;-74
2023/04/26 03:46:55;;;;;;;12.67;10.93;;;;;;;;;;4996686;28;20227;-74
2023/04/26 03:49:21;;;;;;;13.93;10.77;;;;;;;;;;4996565;28;20211;-77
2023/04/26 03:51:47;;;;;;;14.43;12.40;;;;;;;;;;4996296;28;20218;-77
2023/04/26 03:54:14;;;;;;;13.80;11.30;;;;;;;;;;4996636;28;20211;-78
2023/04/26 03:56:41;;;;;;;13.67;11.57;;;;;;;;;;4996544;28;20228;-78
2023/04/26 03:59:08;;;;;;;13.53;10.70;;;;;;;;;;4997298;28;20310;-77
2023/04/26 04:01:35;;;;;;;13.80;11.13;;;;;;;;;;4996296;28;20207;-77
2023/04/26 04:04:01;;;;;;;16.93;11.07;;;;;;;;;;4995854;28;20674;-77
2023/04/26 04:06:27;;;;;;;13.60;10.37;;;;;;;;;;4995403;28;20231;-77
2023/04/26 04:08:54;;;;;;;13.23;10.43;;;;;;;;;;4996023;28;20215;-77
2023/04/26 04:11:21;;;;;;;14.30;10.60;;;;;;;;;;4996300;28;20203;-77
2023/04/26 04:13:47;;;;;;;11.57;9.93;;;;;;;;;;4996295;28;20207;-77
2023/04/26 04:16:13;;;;;;;11.77;10.40;;;;;;;;;;4996031;28;20220;-77
2023/04/26 04:18:40;;;;;;;12.97;10.73;;;;;;;;;;4996008;28;20230;-77
2023/04/26 04:21:06;;;;;;;12.57;10.60;;;;;;;;;;4995982;28;20575;-77
2023/04/26 04:23:32;;;;;;;13.50;10.13;;;;;;;;;;4995893;28;20211;-77
2023/04/26 04:25:58;;;;;;;12.63;10.10;;;;;;;;;;4995575;28;20738;-77
2023/04/26 04:28:24;;;;;;;12.33;9.80;;;;;;;;;;4995900;28;20693;-77
2023/04/26 04:30:51;;;;;;;12.37;10.23;;;;;;;;;;4995811;28;20203;-77
2023/04/26 04:33:18;;;;;;;12.87;9.73;;;;;;;;;;4996736;28;20208;-77
2023/04/26 04:35:44;;;;;;;12.20;10.20;;;;;;;;;;4995793;28;20223;-77
2023/04/26 04:38:10;;;;;;;14.33;10.20;;;;;;;;;;4995621;28;20615;-77
2023/04/26 04:40:37;;;;;;;13.73;9.73;;;;;;;;;;4995409;28;20233;-77
2023/04/26 04:43:03;;;;;;;12.00;10.10;;;;;;;;;;4995311;28;20255;-77
2023/04/26 04:45:29;;;;;;;14.10;9.47;;;;;;;;;;4995802;28;20254;-78
2023/04/26 04:47:55;;;;;;;12.50;10.03;;;;;;;;;;4995435;28;20203;-77
2023/04/26 04:50:22;;;;;;;15.50;10.03;;;;;;;;;;4995232;28;20206;-78
2023/04/26 04:52:48;;;;;;;13.57;10.23;;;;;;;;;;4995261;28;20266;-77
2023/04/26 04:55:15;;;;;;;14.73;10.63;;;;;;;;;;4994967;28;20249;-77
2023/04/26 04:57:42;;;;;;;13.27;9.83;;;;;;;;;;4994893;28;20215;-77
2023/04/26 05:00:09;;;;;;;12.67;9.43;;;;;;;;;;4994597;28;20614;-77
2023/04/26 05:02:38;;;;;;;13.37;10.20;;;;;;;;;;4994915;28;20235;-77
2023/04/26 05:05:05;;;;;;;12.47;9.97;;;;;;;;;;4994786;28;20242;-77
2023/04/26 05:07:32;;;;;;;16.30;10.53;;;;;;;;;;4994650;28;20666;-77
2023/04/26 05:09:58;;;;;;;12.17;10.13;;;;;;;;;;4994782;28;20191;-77
2023/04/26 05:12:24;;;;;;;14.00;9.63;;;;;;;;;;4994948;28;20211;-78
2023/04/26 05:14:51;;;;;;;13.20;10.43;;;;;;;;;;4994738;28;20219;-78
2023/04/26 05:17:17;;;;;;;11.83;9.10;;;;;;;;;;4994104;28;20210;-78
2023/04/26 05:19:43;;;;;;;16.40;9.73;;;;;;;;;;4994623;28;20218;-78
2023/04/26 05:22:09;;;;;;;15.20;8.97;;;;;;;;;;4994264;28;20662;-78
2023/04/26 05:24:36;;;;;;;12.53;9.10;;;;;;;;;;4994364;28;20242;-78
2023/04/26 05:27:03;;;;;;;15.03;9.13;;;;;;;;;;4994657;28;20234;-78
2023/04/26 05:29:29;;;;;;;11.53;9.27;;;;;;;;;;4994606;28;20211;-77
2023/04/26 05:31:56;;;;;;;11.80;9.10;;;;;;;;;;4994389;28;20218;-78
2023/04/26 05:34:23;;;;;;;11.97;9.70;;;;;;;;;;4993862;28;20207;-77
2023/04/26 05:36:50;;;;;;;13.20;9.53;;;;;;;;;;4994346;28;20277;-78
2023/04/26 05:39:16;;;;;;;11.03;9.73;;;;;;;;;;4994079;28;20210;-78
2023/04/26 05:41:43;;;;;;;13.63;10.87;;;;;;;;;;4994110;28;20207;-78
2023/04/26 05:44:09;;;;;;;13.33;10.10;;;;;;;;;;4995290;28;20213;-77
2023/04/26 05:46:35;;;;;;;12.60;10.43;;;;;;;;;;4994091;28;20233;-77
2023/04/26 05:49:01;;;;;;;14.13;11.07;;;;;;;;;;4994483;28;20222;-78
2023/04/26 05:51:28;;;;;;;15.90;10.63;;;;;;;;;;4994163;28;20214;-74
2023/04/26 05:53:54;;;;;;;12.73;11.00;;;;;;;;;;4994186;28;20258;-74
2023/04/26 05:56:20;;;;;;;15.77;10.60;;;;;;;;;;4993662;28;20329;-75
2023/04/26 05:58:47;;;;;;;14.03;11.17;;;;;;;;;;4993784;28;20674;-74
2023/04/26 06:01:13;;;;;;;14.50;10.30;;;;;;;;;;4993803;28;20275;-74
2023/04/26 06:03:40;;;;;;;15.70;11.03;;;;;;;;;;4993416;28;20211;-74
2023/04/26 06:06:06;;;;;;;12.63;9.60;;;;;;;;;;4994211;28;20279;-74
2023/04/26 06:08:33;;;;;;;15.90;10.43;;;;;;;;;;4993306;28;20233;-74
2023/04/26 06:10:59;;;;;;;14.53;9.83;;;;;;;;;;4993926;28;20222;-74
2023/04/26 06:13:25;;;;;;;13.27;10.93;;;;;;;;;;4993957;28;20211;-75
2023/04/26 06:15:53;;;;;;;11.57;9.67;;;;;;;;;;4993811;28;20233;-74
2023/04/26 06:18:19;;;;;;;14.10;9.73;;;;;;;;;;4993610;28;20214;-74
2023/04/26 06:20:46;;;;;;;13.80;11.43;;;;;;;;;;4994083;28;20204;-74
2023/04/26 06:23:12;;;;;;;13.77;10.20;;;;;;;;;;4993583;28;20215;-74
2023/04/26 06:25:42;;;;;;;9.63;8.27;;;;;;;;;;4993552;28;20242;-75
2023/04/26 06:28:09;;;;;;;10.97;9.37;;;;;;;;;;4993694;28;20198;-74
2023/04/26 06:30:35;;;;;;;15.43;9.07;;;;;;;;;;4997948;28;20207;-74
2023/04/26 06:33:01;;;;;;;11.90;9.10;;;;;;;;;;4997988;28;20215;-74
2023/04/26 06:35:27;;;;;;;10.87;8.37;;;;;;;;;;4997454;28;20245;-74
2023/04/26 06:37:54;;;;;;;9.03;6.73;;;;;;;;;;4997543;28;20572;-74
2023/04/26 06:40:20;;;;;;;10.30;6.80;;;;;;;;;;4997253;28;20211;-74
2023/04/26 06:42:47;;;;;;;11.07;7.57;;;;;;;;;;4997572;28;20230;-74
2023/04/26 06:45:13;;;;;;;10.03;6.83;;;;;;;;;;4997325;28;20238;-74
2023/04/26 06:47:40;;;;;;;11.63;6.33;;;;;;;;;;4997671;28;20203;-74
2023/04/26 06:50:06;;;;;;;8.70;5.87;;;;;;;;;;4997723;28;20563;-74
2023/04/26 06:52:32;;;;;;;7.80;5.53;;;;;;;;;;4997654;28;20210;-74
2023/04/26 06:55:02;;;;;;;8.37;5.47;;;;;;;;;;4997485;28;20211;-74
2023/04/26 06:57:29;;;;;;;10.07;5.77;;;;;;;;;;4997486;28;20203;-74
2023/04/26 06:59:55;;;;;;;10.57;6.33;;;;;;;;;;4997099;28;20211;-74
2023/04/26 07:02:23;;;;;;;7.53;5.20;;;;;;;;;;4996937;28;20277;-74
2023/04/26 07:04:49;;;;;;;8.37;5.87;;;;;;;;;;4997407;28;20246;-74
2023/04/26 07:07:15;;;;;;;7.13;4.73;;;;;;;;;;4997496;28;20231;-74
2023/04/26 07:09:42;;;;;;;6.60;3.70;;;;;;;;;;4997195;28;20226;-74
2023/04/26 07:12:11;;;;;;;4.93;2.90;;;;;;;;;;4997000;28;20689;-74
2023/04/26 07:14:39;;;;;;;6.67;2.70;;;;;;;;;;4997419;28;20215;-74
2023/04/26 07:17:05;;;;;;;5.07;2.30;;;;;;;;;;4997351;28;20330;-74
2023/04/26 07:19:32;;;;;;;6.60;2.93;;;;;;;;;;4997157;28;20211;-74
2023/04/26 07:21:58;;;;;;;4.80;3.03;;;;;;;;;;4996798;28;20569;-74
2023/04/26 07:24:24;;;;;;;5.87;3.50;;;;;;;;;;4996857;28;20250;-74
2023/04/26 07:26:51;;;;;;;5.77;4.00;;;;;;;;;;4996803;28;20254;-74
2023/04/26 07:29:17;;;;;;;8.57;4.43;;;;;;;;;;4997418;28;20301;-74
2023/04/26 07:31:43;;;;;;;7.17;4.23;;;;;;;;;;4996513;28;20697;-74
2023/04/26 07:34:10;;;;;;;8.17;4.43;;;;;;;;;;4996653;28;20209;-74
2023/04/26 07:36:36;;;;;;;6.87;4.33;;;;;;;;;;4996662;28;20223;-74
2023/04/26 07:39:04;;;;;;;4.93;3.70;;;;;;;;;;4996797;28;20233;-74
2023/04/26 07:41:30;;;;;;;5.80;4.17;;;;;;;;;;4995522;28;20242;-74
2023/04/26 07:43:56;;;;;;;6.73;4.70;;;;;;;;;;4996340;28;20214;-74
2023/04/26 07:46:23;;;;;;;6.77;4.00;;;;;;;;;;4996507;28;20251;-74
2023/04/26 07:48:49;;;;;;;6.27;4.13;;;;;;;;;;4996834;28;20207;-74
2023/04/26 07:51:15;;;;;;;6.37;4.00;;;;;;;;;;4996570;28;20218;-74
2023/04/26 07:53:41;;;;;;;6.90;4.10;;;;;;;;;;4995865;28;20211;-74
2023/04/26 07:56:08;;;;;;;5.30;4.27;;;;;;;;;;4996609;28;20234;-74
2023/04/26 07:58:35;;;;;;;6.03;4.40;;;;;;;;;;4996726;28;20290;-74
2023/04/26 08:01:01;;;;;;;8.27;3.80;;;;;;;;;;4996568;28;20298;-74
2023/04/26 08:03:27;;;;;;;6.77;3.80;;;;;;;;;;4996456;28;20719;-74
2023/04/26 08:05:54;;;;;;;6.87;4.00;;;;;;;;;;4996082;28;20257;-74
2023/04/26 08:08:21;;;;;;;8.17;4.37;;;;;;;;;;4996162;28;20215;-74
2023/04/26 08:10:48;;;;;;;7.97;4.43;;;;;;;;;;4996249;28;20207;-74
2023/04/26 08:13:14;;;;;;;8.43;4.13;;;;;;;;;;4996196;28;20274;-74
2023/04/26 08:15:40;;;;;;;8.10;4.30;;;;;;;;;;4995905;28;20226;-74
2023/04/26 08:18:07;;;;;;;6.47;4.33;;;;;;;;;;4996243;28;20218;-74
2023/04/26 08:20:33;;;;;;;9.33;4.00;;;;;;;;;;4995812;28;20211;-74
2023/04/26 08:22:59;;;;;;;7.63;4.40;;;;;;;;;;4995863;28;20207;-74
2023/04/26 08:25:26;;;;;;;6.30;3.97;;;;;;;;;;4996026;28;20594;-74
2023/04/26 08:27:52;;;;;;;7.23;4.40;;;;;;;;;;4996040;28;20238;-74
2023/04/26 08:30:19;;;;;;;10.13;4.60;;;;;;;;;;4995855;28;20207;-74
2023/04/26 08:32:45;;;;;;;7.00;4.63;;;;;;;;;;4995904;28;20213;-74
2023/04/26 08:35:11;;;;;;;7.80;4.53;;;;;;;;;;4995932;28;20226;-74
2023/04/26 08:37:38;;;;;;;6.03;4.17;;;;;;;;;;4995870;28;20208;-74
2023/04/26 08:40:08;;;;;;;7.80;4.43;;;;;;;;;;4995532;28;20212;-74
2023/04/26 08:42:37;;;;;;;5.63;4.33;;;;;;;;;;4995717;28;20204;-74
2023/04/26 08:45:04;;;;;;;8.80;4.27;;;;;;;;;;4995678;28;20212;-74
2023/04/26 08:47:38;;;;;;;7.63;4.30;;;;;;;;;;4995711;28;20231;-74
2023/04/26 08:50:05;;;;;;;7.50;3.83;;;;;;;;;;4995777;28;20213;-74
2023/04/26 08:52:32;;;;;;;7.63;4.27;;;;;;;;;;4995438;28;20211;-74
2023/04/26 08:54:59;;;;;;;8.30;4.40;;;;;;;;;;4995438;28;20207;-74
2023/04/26 08:57:26;;;;;;;7.50;4.47;;;;;;;;;;4995497;28;20214;-74
2023/04/26 08:59:52;;;;;;;7.17;4.43;;;;;;;;;;4995392;28;20253;-74
2023/04/26 09:02:19;;;;;;;8.00;4.57;;;;;;;;;;4994949;28;20242;-74
2023/04/26 09:04:46;;;;;;;5.40;4.10;;;;;;;;;;4995031;28;20610;-74
2023/04/26 09:07:15;;;;;;;6.00;3.70;;;;;;;;;;4995109;28;20234;-74
2023/04/26 09:09:42;;;;;;;8.93;4.10;;;;;;;;;;4994719;28;20215;-74
2023/04/26 09:12:08;;;;;;;7.50;4.10;;;;;;;;;;4995003;28;20211;-76
2023/04/26 09:14:35;;;;;;;7.93;4.33;;;;;;;;;;4995133;28;20211;-75
2023/04/26 09:17:02;;;;;;;8.40;4.30;;;;;;;;;;4995134;28;20219;-75
2023/04/26 09:19:35;;;;;;;6.30;4.37;;;;;;;;;;4994768;28;20277;-75
2023/04/26 09:22:02;;;;;;;6.10;4.40;;;;;;;;;;4994951;28;20580;-75
2023/04/26 09:24:28;;;;;;;7.70;4.53;;;;;;;;;;4995032;28;20214;-75
2023/04/26 09:27:01;;;;;;;5.83;4.17;;;;;;;;;;4994714;28;20682;-75
2023/04/26 09:29:28;;;;;;;4.43;3.97;;;;;;;;;;4994897;28;20203;-75
2023/04/26 09:31:54;;;;;;;9.23;4.93;;;;;;;;;;4994960;28;20207;-74
2023/04/26 09:34:21;;;;;;;6.37;4.40;;;;;;;;;;4994977;28;20204;-75
2023/04/26 09:36:55;;;;;;;6.80;4.40;;;;;;;;;;4994568;28;20224;-74
2023/04/26 09:39:39;;;;;;;5.40;4.10;;;;;;;;;;4994625;28;20207;-74
2023/04/26 09:42:05;;;;;;;5.23;3.83;;;;;;;;;;4994837;28;20207;-74
2023/04/26 09:44:32;;;;;;;8.37;4.10;;;;;;;;;;4994806;28;20219;-74
2023/04/26 09:47:00;;;;;;;5.67;3.97;;;;;;;;;;4994540;28;20239;-74
2023/04/26 09:49:27;;;;;;;7.40;3.90;;;;;;;;;;4993896;28;20550;-74
2023/04/26 09:52:03;;;;;;;6.50;3.93;;;;;;;;;;4994129;28;20670;-75
2023/04/26 09:54:39;;;;;;;7.00;4.50;;;;;;;;;;4994480;28;20222;-75
2023/04/26 09:57:05;;;;;;;5.30;4.03;;;;;;;;;;4994258;28;20219;-75
2023/04/26 09:59:42;;;;;;;8.27;4.40;;;;;;;;;;4994022;28;20640;-74
2023/04/26 10:02:16;;;;;;;5.07;3.50;;;;;;;;;;4994904;28;20203;-74
2023/04/26 10:04:46;;;;;;;6.23;3.70;;;;;;;;;;4993728;28;20218;-74
2023/04/26 10:07:13;;;;;;;6.00;3.67;;;;;;;;;;4993817;28;20621;-74
2023/04/26 10:09:42;;;;;;;6.43;3.83;;;;;;;;;;4994478;28;20215;-74
2023/04/26 10:12:10;;;;;;;4.47;3.63;;;;;;;;;;4994360;28;20209;-74
2023/04/26 10:14:36;;;;;;;7.87;3.80;;;;;;;;;;4993719;28;20204;-74
2023/04/26 10:17:03;;;;;;;5.93;3.60;;;;;;;;;;4994306;28;20231;-74
2023/04/26 10:19:30;;;;;;;5.90;3.80;;;;;;;;;;4993663;28;20239;-74
2023/04/26 10:22:00;;;;;;;8.70;3.30;;;;;;;;;;4993558;28;20244;-74
2023/04/26 10:24:26;;;;;;;5.70;3.43;;;;;;;;;;4976726;28;20234;-74
2023/04/26 10:26:55;;;;;;;6.77;3.87;;;;;;;;;;4993907;28;20231;-74
2023/04/26 10:29:22;;;;;;;5.97;3.90;;;;;;;;;;4993844;28;20214;-74
2023/04/26 10:32:03;;;;;;;5.33;3.60;;;;;;;;;;4993817;28;20213;-74
2023/04/26 10:34:31;;;;;;;7.57;3.70;;;;;;;;;;4993800;28;20305;-74
2023/04/26 10:37:10;;;;;;;7.07;3.83;;;;;;;;;;4993664;28;20225;-74
2023/04/26 10:39:37;;;;;;;6.37;3.60;;;;;;;;;;4993426;28;20210;-74
2023/04/26 10:42:22;;;;;;;7.93;3.90;;;;;;;;;;4993727;28;20210;-74
2023/04/26 10:44:49;;;;;;;7.33;3.87;;;;;;;;;;4993374;28;20208;-74
2023/04/26 10:47:31;;;;;;;5.37;3.43;;;;;;;;;;4993584;28;20226;-74
2023/04/26 10:50:08;;;;;;;7.80;3.67;;;;;;;;;;4993865;28;20211;-74
2023/04/26 10:52:35;;;;;;;4.93;3.20;;;;;;;;;;4993926;28;20303;-74
2023/04/26 10:55:02;;;;;;;8.77;3.57;;;;;;;;;;4993600;28;20203;-74
2023/04/26 10:57:48;;;;;;;5.87;3.50;;;;;;;;;;4993746;28;20571;-74
2023/04/26 11:00:25;;;;;;;6.27;3.87;;;;;;;;;;4993673;28;20750;-74
2023/04/26 11:03:05;;;;;;;5.47;3.23;;;;;;;;;;4993890;28;20204;-74
2023/04/26 11:05:39;;;;;;;4.17;3.63;;;;;;;;;;4993756;28;20224;-74
2023/04/26 11:08:24;;;;;;;7.83;4.20;;;;;;;;;;4994000;28;20228;-74
2023/04/26 11:11:10;;;;;;;7.63;4.20;;;;;;;;;;4993770;28;20224;-74
2023/04/26 11:13:38;;;;;;;8.23;3.57;;;;;;;;;;4993016;28;20208;-74
2023/04/26 11:16:05;;;;;;;5.10;3.33;;;;;;;;;;4994874;28;20233;-74
2023/04/26 11:18:32;;;;;;;5.83;3.33;;;;;;;;;;4997608;28;20202;-74
2023/04/26 11:20:59;;;;;;;5.13;3.30;;;;;;;;;;4997245;28;20206;-74
2023/04/26 11:23:27;;;;;;;6.97;3.77;;;;;;;;;;4997317;28;20211;-74
2023/04/26 11:25:53;;;;;;;6.83;3.43;;;;;;;;;;4997325;28;20226;-74
2023/04/26 11:28:21;;;;;;;5.37;3.53;;;;;;;;;;4996723;28;20230;-74
2023/04/26 11:30:48;;;;;;;5.40;3.10;;;;;;;;;;4996224;28;20214;-74
2023/04/26 11:33:18;;;;;;;4.63;3.50;;;;;;;;;;4996554;28;20215;-74
2023/04/26 11:35:46;;;;;;;4.97;3.87;;;;;;;;;;4996802;28;20269;-74
2023/04/26 11:38:13;;;;;;;5.27;3.33;;;;;;;;;;4996735;28;20235;-74
2023/04/26 11:40:40;;;;;;;6.23;3.77;;;;;;;;;;4996571;28;20209;-74
2023/04/26 11:43:07;;;;;;;4.50;3.47;;;;;;;;;;4996609;28;20210;-74
2023/04/26 11:45:35;;;;;;;9.07;4.10;;;;;;;;;;4996441;28;20733;-74
2023/04/26 11:48:06;;;;;;;4.57;3.27;;;;;;;;;;4996625;28;20231;-74
2023/04/26 11:50:33;;;;;;;8.83;3.97;;;;;;;;;;4997141;28;20203;-74
2023/04/26 11:53:00;;;;;;;5.13;3.93;;;;;;;;;;4996271;28;20685;-74
2023/04/26 11:55:31;;;;;;;7.43;3.67;;;;;;;;;;4995800;28;20228;-74
2023/04/26 11:57:58;;;;;;;4.47;3.30;;;;;;;;;;4996662;28;20203;-74
2023/04/26 12:00:24;;;;;;;8.83;3.97;;;;;;;;;;4996046;28;20211;-74
2023/04/26 12:02:52;;;;;;;6.67;3.57;;;;;;;;;;4996187;28;20616;-74
2023/04/26 12:05:29;;;;;;;7.03;3.47;;;;;;;;;;4996395;28;20285;-74
2023/04/26 12:07:56;;;;;;;8.90;3.57;;;;;;;;;;4996125;28;20234;-74
2023/04/26 12:10:27;;;;;;;6.43;3.23;;;;;;;;;;4997173;28;20195;-74
2023/04/26 12:12:55;;;;;;;4.30;3.77;;;;;;;;;;4996362;28;20214;-74
2023/04/26 12:15:31;;;;;;;5.07;3.17;;;;;;;;;;4995409;28;20733;-74
2023/04/26 12:18:08;;;;;;;8.37;3.13;;;;;;;;;;4997045;28;20229;-74
2023/04/26 12:20:36;;;;;;;5.93;3.10;;;;;;;;;;4996116;28;20268;-74
2023/04/26 12:23:05;;;;;;;6.00;3.17;;;;;;;;;;4995511;28;20678;-74
2023/04/26 12:25:32;;;;;;;6.47;3.63;;;;;;;;;;4995978;28;20274;-74
2023/04/26 12:27:59;;;;;;;4.90;3.30;;;;;;;;;;4995391;28;20238;-74
2023/04/26 12:30:25;;;;;;;4.10;3.20;;;;;;;;;;4995912;28;20210;-74
2023/04/26 12:32:52;;;;;;;4.70;3.20;;;;;;;;;;4996313;28;20214;-74
2023/04/26 12:35:18;;;;;;;9.00;3.30;;;;;;;;;;4995693;28;20237;-74
2023/04/26 12:37:44;;;;;;;5.13;3.30;;;;;;;;;;4995840;28;20577;-74
2023/04/26 12:40:11;;;;;;;4.53;3.03;;;;;;;;;;4995976;28;20207;-74
2023/04/26 12:42:37;;;;;;;5.63;3.00;;;;;;;;;;4995677;28;20207;-74
2023/04/26 12:45:04;;;;;;;5.37;3.10;;;;;;;;;;4995189;28;20207;-74
2023/04/26 12:47:31;;;;;;;5.80;3.00;;;;;;;;;;4995838;28;20223;-74
2023/04/26 12:49:59;;;;;;;6.17;3.10;;;;;;;;;;4995634;28;20203;-74
2023/04/26 12:52:25;;;;;;;4.90;3.50;;;;;;;;;;4995385;28;20290;-74
2023/04/26 12:54:52;;;;;;;6.97;3.07;;;;;;;;;;4995439;28;20214;-74
2023/04/26 12:57:19;;;;;;;4.00;2.73;;;;;;;;;;4995013;28;20209;-74
2023/04/26 12:59:45;;;;;;;6.90;3.40;;;;;;;;;;4995234;28;20207;-74
2023/04/26 13:02:11;;;;;;;6.13;3.40;;;;;;;;;;4995222;28;20570;-73
2023/04/26 13:04:38;;;;;;;13.27;3.83;;;;;;;;;;4995128;28;20701;-74
2023/04/26 13:07:04;;;;;;;6.27;3.10;;;;;;;;;;4994722;28;20788;-74
2023/04/26 13:09:31;;;;;;;5.43;3.10;;;;;;;;;;4994813;28;20218;-74
2023/04/26 13:11:57;;;;;;;6.43;3.07;;;;;;;;;;4994897;28;20206;-74
2023/04/26 13:14:23;;;;;;;4.97;3.30;;;;;;;;;;4994955;28;20218;-74
2023/04/26 13:16:51;;;;;;;4.27;3.40;;;;;;;;;;4994867;28;20223;-74
2023/04/26 13:19:17;;;;;;;4.17;3.10;;;;;;;;;;4994867;28;20203;-74
2023/04/26 13:21:43;;;;;;;7.03;3.37;;;;;;;;;;4994962;28;20232;-74
2023/04/26 13:24:10;;;;;;;5.73;3.10;;;;;;;;;;4994991;28;20558;-74
2023/04/26 13:26:36;;;;;;;6.03;3.03;;;;;;;;;;4994298;28;20725;-74
2023/04/26 13:29:03;;;;;;;4.87;2.83;;;;;;;;;;4994592;28;20266;-74
2023/04/26 13:31:29;;;;;;;4.07;2.70;;;;;;;;;;4994624;28;20573;-74
2023/04/26 13:33:55;;;;;;;4.83;2.80;;;;;;;;;;4994244;28;20215;-74
2023/04/26 13:36:22;;;;;;;4.40;3.10;;;;;;;;;;4994622;28;20223;-74
2023/04/26 13:38:48;;;;;;;4.63;2.70;;;;;;;;;;4993940;28;20203;-74
2023/04/26 13:41:15;;;;;;;7.70;3.30;;;;;;;;;;4994693;28;20215;-74
2023/04/26 13:43:41;;;;;;;5.90;3.17;;;;;;;;;;4994548;28;20277;-74
2023/04/26 13:46:07;;;;;;;4.17;3.20;;;;;;;;;;4994289;28;20223;-73
2023/04/26 13:48:34;;;;;;;5.80;3.53;;;;;;;;;;4994885;28;20227;-74
2023/04/26 13:51:00;;;;;;;7.57;3.70;;;;;;;;;;4994351;28;20207;-74
2023/04/26 13:53:26;;;;;;;6.53;4.10;;;;;;;;;;4994315;28;20203;-74
2023/04/26 13:55:52;;;;;;;11.77;5.03;;;;;;;;;;4994589;28;20227;-73
2023/04/26 13:58:18;;;;;;;6.63;3.77;;;;;;;;;;4994258;28;20215;-74
2023/04/26 14:00:45;;;;;;;6.00;3.67;;;;;;;;;;4994406;28;20218;-74
2023/04/26 14:03:12;;;;;;;6.97;3.50;;;;;;;;;;4994582;28;20226;-74
2023/04/26 14:05:38;;;;;;;5.27;3.43;;;;;;;;;;4994255;28;20227;-74
2023/04/26 14:08:04;;;;;;;6.60;3.57;;;;;;;;;;4993931;28;20227;-75
2023/04/26 14:10:31;;;;;;;5.17;3.40;;;;;;;;;;4994241;28;20663;-74
2023/04/26 14:12:57;;;;;;;6.67;3.90;;;;;;;;;;4993761;28;20640;-74
2023/04/26 14:15:23;;;;;;;6.43;3.80;;;;;;;;;;4993396;28;20594;-74
2023/04/26 14:17:49;;;;;;;5.30;3.73;;;;;;;;;;4993701;28;20210;-74
2023/04/26 14:20:16;;;;;;;6.10;3.60;;;;;;;;;;4994151;28;20597;-74
2023/04/26 14:22:42;;;;;;;4.97;3.30;;;;;;;;;;4994781;28;20218;-74
2023/04/26 14:25:09;;;;;;;6.27;3.50;;;;;;;;;;4993781;28;20227;-74
2023/04/26 14:27:35;;;;;;;4.43;3.63;;;;;;;;;;4994232;28;20231;-74
2023/04/26 14:30:01;;;;;;;7.33;3.63;;;;;;;;;;4993957;28;20206;-75
2023/04/26 14:32:27;;;;;;;5.27;3.27;;;;;;;;;;4993806;28;20214;-75
2023/04/26 14:34:54;;;;;;;5.60;3.20;;;;;;;;;;4993896;28;20207;-74
2023/04/26 14:37:21;;;;;;;6.23;5.47;;;;;;;;;;4993751;28;20215;-74
2023/04/26 14:39:48;;;;;;;5.23;3.40;;;;;;;;;;4993983;28;20261;-74